createdAt,value
2023-03-15T00:03:13.722Z,32.80
2023-03-15T00:07:13.834Z,33.48
2023-03-15T00:11:14.010Z,33.99
2023-03-15T00:15:14.189Z,37.37
2023-03-15T00:19:14.374Z,35.50
2023-03-15T00:23:14.510Z,36.80
2023-03-15T00:27:14.666Z,33.55
2023-03-15T00:31:14.881Z,35.84
2023-03-15T00:35:14.995Z,37.17
2023-03-15T00:39:15.181Z,37.80
2023-03-15T00:43:15.304Z,36.80
2023-03-15T00:47:15.444Z,38.41
2023-03-15T00:51:15.585Z,37.55
2023-03-15T00:55:15.747Z,38.22
2023-03-15T00:59:15.893Z,38.34
2023-03-15T01:03:16.151Z,39.04
2023-03-15T01:07:16.282Z,39.31
2023-03-15T01:11:16.460Z,39.62
2023-03-15T01:15:16.561Z,39.46
2023-03-15T01:19:16.818Z,37.99
2023-03-15T01:23:16.991Z,40.18
2023-03-15T01:27:17.197Z,39.01
2023-03-15T01:31:17.388Z,39.11
2023-03-15T01:35:17.630Z,40.60
2023-03-15T01:39:17.788Z,40.48
2023-03-15T01:43:17.962Z,38.29
2023-03-15T01:47:18.146Z,37.85
2023-03-15T01:51:18.385Z,37.50
2023-03-15T01:55:18.555Z,38.79
2023-03-15T01:59:18.743Z,39.45
2023-03-15T02:03:18.917Z,40.59
2023-03-15T02:07:19.107Z,40.41
2023-03-15T02:11:19.226Z,38.37
2023-03-15T02:15:19.465Z,39.80
2023-03-15T02:19:19.599Z,39.97
2023-03-15T02:23:20.023Z,39.08
2023-03-15T02:27:20.022Z,40.00
2023-03-15T02:31:20.246Z,40.53
2023-03-15T02:35:20.445Z,41.07
2023-03-15T02:39:20.992Z,40.26
2023-03-15T02:43:20.873Z,39.53
2023-03-15T02:47:21.081Z,41.13
2023-03-15T02:51:21.243Z,39.38
2023-03-15T02:55:21.407Z,40.61
2023-03-15T02:59:21.363Z,40.38
2023-03-15T03:03:21.336Z,40.26
2023-03-15T03:07:21.308Z,39.33
2023-03-15T03:11:21.295Z,41.01
2023-03-15T03:15:21.261Z,39.92
2023-03-15T03:19:21.229Z,40.60
2023-03-15T03:23:21.155Z,41.03
2023-03-15T03:27:21.106Z,40.83
2023-03-15T03:31:21.166Z,40.82
2023-03-15T03:35:21.021Z,41.61
2023-03-15T03:39:21.152Z,40.62
2023-03-15T03:43:21.106Z,40.01
2023-03-15T03:47:21.098Z,40.54
2023-03-15T03:51:21.029Z,38.69
2023-03-15T03:55:21.017Z,40.55
2023-03-15T03:59:20.987Z,39.99
2023-03-15T04:03:20.937Z,40.27
2023-03-15T04:07:20.928Z,39.77
2023-03-15T04:11:20.865Z,38.49
2023-03-15T04:15:20.907Z,40.04
2023-03-15T04:19:20.769Z,40.70
2023-03-15T04:23:21.003Z,39.14
2023-03-15T04:27:20.921Z,39.27
2023-03-15T04:31:20.938Z,40.11
2023-03-15T04:35:20.877Z,38.60
2023-03-15T04:39:20.855Z,38.62
2023-03-15T04:43:20.781Z,38.65
2023-03-15T04:47:20.835Z,39.23
2023-03-15T04:51:20.735Z,38.06
2023-03-15T04:55:20.701Z,38.02
2023-03-15T04:59:20.693Z,37.19
2023-03-15T05:03:20.657Z,39.70
2023-03-15T05:07:20.737Z,25.07
2023-03-15T05:11:20.719Z,25.00
2023-03-15T05:15:20.698Z,26.02
2023-03-15T05:19:20.620Z,25.00
2023-03-15T05:27:34.633Z,25.00
2023-03-15T05:31:34.606Z,25.00
2023-03-15T05:35:34.597Z,50.15
2023-03-15T05:39:34.504Z,65.74
2023-03-15T05:43:34.466Z,80.08
2023-03-15T05:47:34.432Z,92.09
2023-03-15T05:51:34.375Z,108.16
2023-03-15T05:55:34.370Z,123.55
2023-03-15T05:59:34.305Z,136.59
2023-03-15T06:03:34.313Z,141.33
2023-03-15T06:07:34.441Z,140.39
2023-03-15T06:11:34.437Z,143.07
2023-03-15T06:15:34.394Z,149.90
2023-03-15T06:19:35.769Z,151.04
2023-03-15T06:23:34.583Z,157.75
2023-03-15T06:27:34.522Z,159.73
2023-03-15T06:31:34.485Z,168.69
2023-03-15T06:35:34.935Z,175.35
2023-03-15T06:39:34.963Z,157.42
2023-03-15T06:43:34.951Z,162.25
2023-03-15T06:47:34.540Z,166.24
2023-03-15T06:51:34.330Z,171.75
2023-03-15T06:55:34.383Z,165.53
2023-03-15T06:59:34.406Z,166.55
2023-03-15T07:03:34.422Z,164.29
2023-03-15T07:07:34.210Z,158.32
2023-03-15T07:11:34.372Z,173.75
2023-03-15T07:15:44.844Z,175.49
2023-03-15T07:19:35.795Z,182.34
2023-03-15T07:23:34.068Z,189.01
2023-03-15T07:27:33.988Z,175.79
2023-03-15T07:31:34.056Z,168.06
2023-03-15T07:35:33.946Z,143.38
2023-03-15T07:39:33.876Z,0.00
2023-03-15T07:43:33.838Z,0.00
2023-03-15T07:47:33.797Z,86.59
2023-03-15T07:51:33.925Z,165.74
2023-03-15T07:55:33.707Z,192.28
2023-03-15T07:59:33.677Z,249.81
2023-03-15T08:03:33.660Z,175.56
2023-03-15T08:07:33.638Z,249.13
2023-03-15T08:11:33.585Z,227.67
2023-03-15T08:15:33.698Z,246.86
2023-03-15T08:19:33.928Z,241.13
2023-03-15T08:23:34.426Z,236.32
2023-03-15T08:27:34.233Z,235.28
2023-03-15T08:31:34.411Z,211.53
2023-03-15T08:35:35.501Z,15.91
2023-03-15T08:39:34.583Z,131.60
2023-03-15T08:43:34.611Z,178.93
2023-03-15T08:47:34.782Z,189.17
2023-03-15T08:51:34.909Z,198.56
2023-03-15T08:55:34.995Z,205.85
2023-03-15T08:59:35.121Z,212.99
2023-03-15T09:03:35.147Z,219.79
2023-03-15T09:07:35.067Z,214.65
2023-03-15T09:11:35.005Z,218.80
2023-03-15T09:15:34.945Z,224.06
2023-03-15T09:19:34.914Z,216.85
2023-03-15T09:23:34.948Z,226.78
2023-03-15T09:27:34.880Z,0.00
2023-03-15T09:31:34.812Z,0.00
2023-03-15T09:35:35.060Z,0.00
2023-03-15T09:39:34.779Z,0.00
2023-03-15T09:43:34.963Z,15.97
2023-03-15T09:47:34.655Z,95.94
2023-03-15T09:51:34.652Z,173.05
2023-03-15T09:55:34.626Z,210.40
2023-03-15T09:59:34.558Z,213.43
2023-03-15T10:03:35.023Z,218.00
2023-03-15T10:07:34.987Z,234.06
2023-03-15T10:11:34.793Z,233.89
2023-03-15T10:15:34.953Z,244.14
2023-03-15T10:19:35.152Z,240.80
2023-03-15T10:23:35.149Z,245.80
2023-03-15T10:27:35.217Z,241.89
2023-03-15T10:31:44.193Z,251.35
2023-03-15T10:35:36.530Z,245.75
2023-03-15T10:39:35.278Z,249.68
2023-03-15T10:43:35.521Z,237.01
2023-03-15T10:47:35.689Z,239.87
2023-03-15T10:51:36.035Z,245.24
2023-03-15T10:55:35.819Z,249.23
2023-03-15T10:59:36.023Z,245.30
2023-03-15T11:03:36.056Z,233.19
2023-03-15T11:07:35.729Z,236.48
2023-03-15T11:11:35.737Z,236.31
2023-03-15T11:15:35.732Z,233.21
2023-03-15T11:19:35.658Z,236.36
2023-03-15T11:23:35.590Z,235.90
2023-03-15T11:27:36.552Z,228.15
2023-03-15T11:31:35.613Z,210.17
2023-03-15T11:35:35.491Z,214.02
2023-03-15T11:39:35.430Z,203.78
2023-03-15T11:43:35.401Z,204.30
2023-03-15T11:47:35.545Z,202.60
2023-03-15T11:51:35.516Z,222.26
2023-03-15T11:55:35.562Z,219.76
2023-03-15T11:59:35.653Z,240.88
2023-03-15T12:03:36.093Z,224.90
2023-03-15T12:07:35.628Z,230.78
2023-03-15T12:11:35.605Z,235.55
2023-03-15T12:15:35.696Z,244.22
2023-03-15T12:19:36.012Z,154.94
2023-03-15T12:23:35.783Z,104.92
2023-03-15T12:27:35.992Z,94.25
2023-03-15T12:31:36.175Z,133.03
2023-03-15T12:35:36.261Z,154.98
2023-03-15T12:39:36.266Z,173.59
2023-03-15T12:43:36.385Z,184.96
2023-03-15T12:47:36.356Z,189.66
2023-03-15T12:51:36.269Z,193.69
2023-03-15T12:55:36.276Z,200.84
2023-03-15T12:59:36.230Z,201.83
2023-03-15T13:03:36.608Z,211.51
2023-03-15T13:07:50.278Z,229.75
2023-03-15T13:11:37.142Z,230.21
2023-03-15T13:15:36.174Z,227.56
2023-03-15T13:19:36.043Z,232.53
2023-03-15T13:23:36.011Z,236.67
2023-03-15T13:27:36.012Z,247.81
2023-03-15T13:31:36.026Z,245.56
2023-03-15T13:35:35.930Z,240.57
2023-03-15T13:39:35.994Z,238.86
2023-03-15T13:43:36.558Z,239.92
2023-03-15T13:47:36.350Z,241.89
2023-03-15T13:51:36.339Z,241.94
2023-03-15T13:55:36.218Z,236.50
2023-03-15T13:59:36.535Z,234.29
2023-03-15T14:03:36.172Z,220.18
2023-03-15T14:07:36.153Z,224.73
2023-03-15T14:11:36.572Z,239.30
2023-03-15T14:15:36.042Z,245.77
2023-03-15T14:19:36.042Z,242.94
2023-03-15T14:23:36.011Z,242.60
2023-03-15T14:27:35.928Z,242.20
2023-03-15T14:31:35.914Z,243.46
2023-03-15T14:35:35.922Z,243.19
2023-03-15T14:39:35.848Z,240.75
2023-03-15T14:43:35.765Z,240.45
2023-03-15T14:47:42.742Z,248.74
2023-03-15T14:51:36.781Z,239.16
2023-03-15T14:55:35.695Z,244.49
2023-03-15T14:59:35.672Z,240.71
2023-03-15T15:03:35.606Z,242.88
2023-03-15T15:07:35.550Z,239.87
2023-03-15T15:11:35.624Z,236.41
2023-03-15T15:15:51.764Z,232.31
2023-03-15T15:19:36.652Z,233.74
2023-03-15T15:23:41.880Z,237.50
2023-03-15T15:27:36.601Z,231.37
2023-03-15T15:31:35.577Z,220.15
2023-03-15T15:35:35.524Z,217.57
2023-03-15T15:39:35.446Z,212.86
2023-03-15T15:43:35.478Z,209.46
2023-03-15T15:47:35.575Z,203.91
2023-03-15T15:51:35.773Z,204.41
2023-03-15T15:55:35.964Z,197.63
2023-03-15T15:59:35.995Z,192.71
2023-03-15T16:03:35.933Z,198.53
2023-03-15T16:07:35.884Z,208.74
2023-03-15T16:11:35.852Z,215.99
2023-03-15T16:15:35.846Z,219.51
2023-03-15T16:19:35.758Z,223.64
2023-03-15T16:23:35.749Z,225.16
2023-03-15T16:27:35.701Z,230.94
2023-03-15T16:31:35.746Z,232.48
2023-03-15T16:35:35.753Z,236.17
2023-03-15T16:39:35.755Z,240.04
2023-03-15T16:43:35.718Z,240.34
2023-03-15T16:47:35.714Z,243.31
2023-03-15T16:51:35.697Z,243.34
2023-03-15T16:55:35.595Z,245.33
2023-03-15T16:59:35.564Z,247.75
2023-03-15T17:03:35.520Z,246.73
2023-03-15T17:07:35.463Z,248.53
2023-03-15T17:11:35.472Z,249.24
2023-03-15T17:15:35.428Z,250.00
2023-03-15T17:19:35.377Z,248.63
2023-03-15T17:23:35.331Z,250.00
2023-03-15T17:27:35.325Z,249.25
2023-03-15T17:31:35.331Z,248.50
2023-03-15T17:35:35.288Z,247.95
2023-03-15T17:39:35.223Z,247.87
2023-03-15T17:43:35.172Z,248.57
2023-03-15T17:47:35.102Z,247.38
2023-03-15T17:51:35.100Z,247.46
2023-03-15T17:55:35.261Z,248.18
2023-03-15T17:59:35.055Z,248.04
2023-03-15T18:03:35.025Z,246.15
2023-03-15T18:07:34.977Z,245.99
2023-03-15T18:11:35.001Z,243.50
2023-03-15T18:15:35.120Z,243.14
2023-03-15T18:19:35.247Z,244.89
2023-03-15T18:23:35.340Z,244.54
2023-03-15T18:27:35.526Z,242.92
2023-03-15T18:31:35.696Z,241.71
2023-03-15T18:35:35.807Z,244.69
2023-03-15T18:39:35.893Z,243.76
2023-03-15T18:43:36.028Z,246.91
2023-03-15T18:47:36.153Z,245.38
2023-03-15T18:51:36.312Z,245.87
2023-03-15T18:55:36.452Z,249.20
2023-03-15T18:59:36.565Z,248.59
2023-03-15T19:03:36.697Z,249.01
2023-03-15T19:07:36.758Z,247.30
2023-03-15T19:11:36.870Z,249.11
2023-03-15T19:15:37.014Z,247.15
2023-03-15T19:19:37.153Z,248.37
2023-03-15T19:23:37.322Z,247.47
2023-03-15T19:27:37.515Z,246.45
2023-03-15T19:31:37.675Z,244.78
2023-03-15T19:35:37.903Z,246.30
2023-03-15T19:39:38.037Z,246.96
2023-03-15T19:43:38.234Z,245.47
2023-03-15T19:47:38.418Z,244.17
2023-03-15T19:51:38.589Z,244.08
2023-03-15T19:55:38.793Z,245.76
2023-03-15T19:59:38.949Z,246.25
2023-03-15T20:03:39.222Z,246.89
2023-03-15T20:07:39.316Z,246.68
2023-03-15T20:11:39.488Z,247.53
2023-03-15T20:15:39.748Z,247.94
2023-03-15T20:19:39.919Z,246.65
2023-03-15T20:23:40.102Z,247.00
2023-03-15T20:27:40.317Z,246.99
2023-03-15T20:31:40.557Z,246.35
2023-03-15T20:35:40.697Z,247.01
2023-03-15T20:39:40.917Z,246.76
2023-03-15T20:43:41.166Z,246.45
2023-03-15T20:47:41.396Z,247.30
2023-03-15T20:51:41.300Z,245.64
2023-03-15T20:55:41.291Z,245.83
2023-03-15T20:59:42.191Z,245.39
2023-03-15T21:03:41.250Z,245.37
2023-03-15T21:07:41.159Z,245.29
2023-03-15T21:11:41.097Z,244.53
2023-03-15T21:15:41.053Z,244.41
2023-03-15T21:19:40.999Z,244.08
2023-03-15T21:23:41.176Z,244.02
2023-03-15T21:27:41.112Z,244.16
2023-03-15T21:31:41.190Z,243.85
2023-03-15T21:35:41.167Z,243.30
2023-03-15T21:39:40.991Z,243.64
2023-03-15T21:43:40.957Z,243.59
2023-03-15T21:47:40.961Z,243.24
2023-03-15T21:51:40.881Z,242.79
2023-03-15T21:55:40.863Z,242.58
2023-03-15T21:59:40.821Z,243.25
2023-03-15T22:03:40.809Z,242.14
2023-03-15T22:07:40.992Z,242.32
2023-03-15T22:11:41.116Z,242.35
2023-03-15T22:15:41.306Z,242.31
2023-03-15T22:19:41.462Z,241.79
2023-03-15T22:23:41.609Z,241.05
2023-03-15T22:27:41.714Z,241.05
2023-03-15T22:31:41.825Z,241.19
2023-03-15T22:35:42.048Z,241.00
2023-03-15T22:39:42.094Z,240.71
2023-03-15T22:43:42.262Z,240.54
2023-03-15T22:47:42.413Z,240.56
2023-03-15T22:51:42.628Z,240.29
2023-03-15T22:55:42.800Z,239.95
2023-03-15T22:59:42.990Z,239.91
2023-03-15T23:03:43.175Z,239.08
2023-03-15T23:07:43.369Z,239.52
2023-03-15T23:11:43.478Z,239.75
2023-03-15T23:15:43.702Z,239.92
2023-03-15T23:19:43.712Z,238.86
2023-03-15T23:23:43.833Z,238.78
2023-03-15T23:27:43.908Z,239.26
2023-03-15T23:31:44.255Z,239.19
2023-03-15T23:35:44.350Z,239.32
2023-03-15T23:39:44.447Z,238.46
2023-03-15T23:43:44.573Z,238.25
2023-03-15T23:47:44.619Z,238.11
2023-03-15T23:51:44.578Z,238.45
2023-03-15T23:55:44.659Z,238.16
2023-03-15T23:59:44.684Z,237.48
